Mount Washington, Pennsylvania
Current Conditions -  °F | °C
As of 2:53 PM on Tuesday 21 Oct 2014 (Local Time) from KAGC Reporting Station
Overcast Overcast  
Wind Chill: 55°   Ceiling: 2400
Heat Index: 55°   Visibility: 10mi
Dew Point: 43°   Wind: 7mph
Humidity: 64%   Direction: 330°NNW
Pressure: 29.86"   Gusts: NA
Location:  40.4305°N, 80.015°W
Report Text: KAGC 211853Z 33006KT 10SM BKN024 OVC035 13/06 A2986 RMK AO2 SLP119 T01280061
Loading
Personal Weather Stations






























Interactive Weather Map
Tropical Storm Tracking
New forecast layout! Learn more

10-Day Weather Forecast

Advertisements
Track Severe Weather on mobile